Time;durP1;ratioP1;P1;durP2;ratioP2;P2;SDS_P1;SDS_P2;PMS_P1;PMS_P2;Temp;Humidity;BMP_temperature;BMP_pressure;BME280_temperature;BME280_humidity;BME280_pressure;Samples;Min_cycle;Max_cycle;Signal;HPM_P1;HPM_P2
2023/10/10 00:01:46;;;;;;;10.52;5.72;;;;;;;15.09;100.00;100873.28;10265320;28;20565;-78
2023/10/10 00:06:49;;;;;;;6.65;5.20;;;;;;;14.99;100.00;100875.13;10260512;28;20043;-77
2023/10/10 00:11:53;;;;;;;8.98;5.07;;;;;;;14.90;100.00;100889.50;10265780;28;20140;-77
2023/10/10 00:16:59;;;;;;;8.35;4.35;;;;;;;15.17;98.75;100886.09;10273005;28;20544;-77
2023/10/10 00:22:04;;;;;;;7.80;4.10;;;;;;;15.07;99.12;100894.22;10266343;28;20097;-77
2023/10/10 00:27:12;;;;;;;10.00;4.03;;;;;;;15.13;98.99;100888.22;10271699;28;20057;-78
2023/10/10 00:32:22;;;;;;;8.35;4.05;;;;;;;15.09;99.12;100892.22;10278619;28;20146;-77
2023/10/10 00:37:29;;;;;;;8.00;4.00;;;;;;;15.20;98.35;100875.00;10275108;28;20057;-77
2023/10/10 00:42:38;;;;;;;6.28;3.92;;;;;;;15.05;99.81;100874.56;10269579;28;20051;-76
2023/10/10 00:47:44;;;;;;;6.97;3.70;;;;;;;15.12;99.40;100870.28;10270378;28;20494;-78
2023/10/10 00:52:52;;;;;;;6.05;3.80;;;;;;;15.08;99.16;100863.44;10281495;28;20057;-78
2023/10/10 00:57:58;;;;;;;7.53;4.07;;;;;;;15.16;98.49;100868.16;10284096;28;20201;-78
2023/10/10 01:03:07;;;;;;;7.57;4.40;;;;;;;14.88;100.00;100873.41;10272344;28;20050;-78
2023/10/10 01:08:10;;;;;;;8.27;4.03;;;;;;;15.09;98.94;100873.28;10277163;28;20058;-76
2023/10/10 01:13:13;;;;;;;7.97;4.10;;;;;;;15.05;99.58;100877.25;10272377;28;20081;-78
2023/10/10 01:18:17;;;;;;;7.75;3.83;;;;;;;15.10;99.57;100869.56;10262399;28;20050;-78
2023/10/10 01:23:26;;;;;;;7.45;3.55;;;;;;;15.09;99.72;100867.88;10260111;28;20055;-78
2023/10/10 01:28:34;;;;;;;8.23;4.47;;;;;;;15.08;100.00;100870.72;10275397;28;20536;-78
2023/10/10 01:33:41;;;;;;;6.70;3.88;;;;;;;15.10;100.00;100869.56;10279971;28;20067;-77
2023/10/10 01:39:08;;;;;;;6.63;3.80;;;;;;;15.20;100.00;100859.59;10272232;28;20216;-77
2023/10/10 01:44:12;;;;;;;7.75;4.50;;;;;;;15.04;99.99;100859.31;10272545;28;20050;-77
2023/10/10 01:49:20;;;;;;;7.20;4.90;;;;;;;15.00;100.00;100864.16;10272487;28;20125;-77
2023/10/10 01:54:34;;;;;;;9.35;6.10;;;;;;;14.85;100.00;100851.19;10268519;28;20060;-77
2023/10/10 01:59:38;;;;;;;7.93;5.55;;;;;;;14.92;100.00;100860.44;10265071;28;20058;-77
2023/10/10 02:04:41;;;;;;;8.60;5.63;;;;;;;14.91;100.00;100856.03;10265246;28;20518;-77
2023/10/10 02:09:53;;;;;;;11.70;6.90;;;;;;;14.98;100.00;100851.78;10268739;28;20058;-78
2023/10/10 02:14:56;;;;;;;9.10;6.57;;;;;;;14.96;100.00;100849.19;10271310;28;20046;-77
2023/10/10 02:20:17;;;;;;;8.45;6.22;;;;;;;14.98;100.00;100852.63;10291077;28;20063;-77
2023/10/10 02:25:38;;;;;;;8.88;5.53;;;;;;;14.93;100.00;100859.47;10260978;28;20047;-78
2023/10/10 02:30:41;;;;;;;9.32;5.30;;;;;;;14.92;100.00;100846.91;10271144;28;20062;-77
2023/10/10 02:35:54;;;;;;;6.38;5.15;;;;;;;14.92;100.00;100846.91;10272523;28;20050;-77
2023/10/10 02:41:15;;;;;;;6.53;4.63;;;;;;;14.90;100.00;100848.94;10268604;28;20046;-77
2023/10/10 02:46:18;;;;;;;8.52;6.13;;;;;;;14.60;100.00;100843.47;10271922;28;20592;-77
2023/10/10 02:51:21;;;;;;;8.88;6.72;;;;;;;14.73;100.00;100845.91;10276160;28;20105;-77
2023/10/10 02:56:25;;;;;;;11.60;6.78;;;;;;;14.84;100.00;100847.66;10267956;28;20130;-78
2023/10/10 03:01:50;;;;;;;10.95;7.57;;;;;;;14.84;100.00;100844.94;10264843;28;21228;-77
2023/10/10 03:06:53;;;;;;;11.43;8.05;;;;;;;14.84;100.00;100844.94;10264487;28;20058;-78
2023/10/10 03:12:03;;;;;;;18.73;8.00;;;;;;;14.82;100.00;100836.97;10266230;28;20054;-77
2023/10/10 03:17:31;;;;;;;15.07;8.00;;;;;;;14.78;100.00;100842.78;10283548;28;20129;-78
2023/10/10 03:22:52;;;;;;;15.07;8.20;;;;;;;14.78;100.00;100846.38;10288938;28;20046;-77
2023/10/10 03:28:05;;;;;;;16.40;8.83;;;;;;;14.80;100.00;100841.63;10260193;28;20043;-77
2023/10/10 03:33:16;;;;;;;12.85;9.13;;;;;;;14.83;100.00;100830.53;10260350;28;20126;-78
2023/10/10 05:25:23;;;;;;;37.97;20.70;;;;;;;14.62;100.00;100791.97;10283773;28;20425;-77
2023/10/10 05:30:39;;;;;;;39.40;21.13;;;;;;;14.63;100.00;100788.28;10266900;28;20141;-77
2023/10/10 05:35:47;;;;;;;37.20;20.60;;;;;;;14.60;100.00;100799.38;10271435;28;20057;-77
2023/10/10 05:40:51;;;;;;;35.40;21.70;;;;;;;14.53;100.00;100788.25;10267541;28;20051;-77
2023/10/10 05:45:54;;;;;;;39.85;21.23;;;;;;;14.50;100.00;100795.78;10263459;28;20421;-77
2023/10/10 05:50:59;;;;;;;44.88;24.13;;;;;;;14.40;100.00;100795.78;10268853;28;21681;-77
2023/10/10 05:56:12;;;;;;;47.63;24.67;;;;;;;14.33;100.00;100794.59;10260747;28;20043;-77
2023/10/10 06:01:17;;;;;;;41.63;23.55;;;;;;;14.26;100.00;100783.50;10267168;28;20054;-77
2023/10/10 06:06:21;;;;;;;46.70;26.27;;;;;;;14.28;100.00;100795.00;10267104;28;20097;-77
2023/10/10 06:11:24;;;;;;;51.92;28.50;;;;;;;14.41;100.00;100796.63;10269958;28;20045;-77
2023/10/10 06:16:28;;;;;;;51.67;28.08;;;;;;;14.56;100.00;100800.63;10266305;28;20059;-77
2023/10/10 06:21:32;;;;;;;54.92;30.25;;;;;;;14.64;100.00;100791.81;10260819;28;20555;-77
2023/10/10 06:26:36;;;;;;;53.35;29.80;;;;;;;14.70;100.00;100786.72;10265817;28;20699;-77
2023/10/10 06:31:43;;;;;;;46.78;26.70;;;;;;;14.69;100.00;100793.09;10268965;28;20139;-77
2023/10/10 06:36:49;;;;;;;52.47;29.33;;;;;;;14.79;100.00;100804.78;10274179;28;21265;-77
2023/10/10 06:41:54;;;;;;;51.58;30.73;;;;;;;14.91;100.00;100805.50;10270181;28;20097;-77
2023/10/10 06:46:57;;;;;;;54.65;31.15;;;;;;;14.98;100.00;100803.09;10272377;28;20059;-77
2023/10/10 06:52:01;;;;;;;51.78;30.42;;;;;;;15.02;100.00;100812.63;10273484;28;20078;-77
2023/10/10 06:57:05;;;;;;;52.38;29.13;;;;;;;15.09;100.00;100796.69;10270951;28;20539;-77
2023/10/10 07:02:19;;;;;;;54.80;31.80;;;;;;;14.96;100.00;100800.50;10264307;28;20046;-77
2023/10/10 07:07:26;;;;;;;61.15;34.17;;;;;;;14.97;100.00;100794.09;10274711;28;20105;-77
2023/10/10 07:12:31;;;;;;;58.28;36.58;;;;;;;15.05;100.00;100793.38;10269927;28;20462;-77
2023/10/10 07:17:38;;;;;;;58.60;34.90;;;;;;;15.18;100.00;100785.81;10266386;28;20245;-77
2023/10/10 07:22:45;;;;;;;68.03;37.33;;;;;;;15.22;100.00;100787.25;10265863;28;20081;-77
2023/10/10 07:27:47;;;;;;;67.13;36.70;;;;;;;15.34;100.00;100787.97;10268380;28;20054;-78
2023/10/10 07:32:50;;;;;;;68.28;39.38;;;;;;;15.54;99.58;100790.63;10261929;28;20464;-78
2023/10/10 07:37:58;;;;;;;69.72;39.17;;;;;;;15.60;99.49;100798.16;10265109;28;20082;-77
2023/10/10 07:43:03;;;;;;;72.80;39.85;;;;;;;15.78;98.48;100795.56;10268908;28;20068;-77
2023/10/10 07:53:44;;;;;;;60.67;36.23;;;;;;;16.31;95.39;100794.88;10257438;28;20525;-78
2023/10/10 07:58:50;;;;;;;62.95;33.58;;;;;;;16.23;95.25;100797.47;10264008;28;20137;-77
2023/10/10 08:03:55;;;;;;;63.50;35.78;;;;;;;16.73;93.74;100795.19;10267902;28;20536;-78
2023/10/10 08:09:18;;;;;;;60.20;33.13;;;;;;;16.44;92.74;100781.81;10267982;28;20051;-78
2023/10/10 08:14:24;;;;;;;61.45;32.35;;;;;;;16.46;93.20;100787.94;10268836;28;21334;-78
2023/10/10 08:19:33;;;;;;;61.75;33.30;;;;;;;16.43;93.14;100777.41;10272803;28;20054;-78
2023/10/10 08:24:39;;;;;;;74.57;35.97;;;;;;;16.66;92.28;100774.25;10268639;28;20053;-77
2023/10/10 08:29:42;;;;;;;64.85;32.03;;;;;;;16.30;96.60;100776.94;10262403;28;20050;-78
2023/10/10 08:34:45;;;;;;;68.63;32.17;;;;;;;16.80;92.34;100774.53;10258146;28;20066;-78
2023/10/10 08:39:50;;;;;;;73.68;34.22;;;;;;;16.18;96.16;100792.53;10262481;28;20059;-77
2023/10/10 08:44:55;;;;;;;69.10;33.15;;;;;;;16.13;96.34;100787.53;10266117;28;20047;-77
2023/10/10 08:50:00;;;;;;;69.32;34.38;;;;;;;16.39;96.39;100794.13;10274188;28;20050;-77
2023/10/10 08:55:10;;;;;;;66.03;30.92;;;;;;;16.40;93.30;100803.94;10269922;28;20459;-78
2023/10/10 09:00:17;;;;;;;76.10;33.42;;;;;;;16.47;95.10;100780.66;10259475;28;21715;-78
2023/10/10 09:05:22;;;;;;;70.57;33.65;;;;;;;16.58;93.71;100799.41;10267929;28;20049;-78
2023/10/10 09:10:28;;;;;;;70.53;34.03;;;;;;;16.33;94.47;100812.69;10271960;28;20059;-77
2023/10/10 09:15:33;;;;;;;70.65;34.95;;;;;;;16.71;92.66;100808.03;10268744;28;20134;-77
2023/10/10 09:20:37;;;;;;;69.18;32.75;;;;;;;17.05;91.43;100793.75;10276779;28;20046;-77
2023/10/10 09:25:44;;;;;;;67.03;32.42;;;;;;;17.54;87.60;100774.28;10270310;28;20058;-77
2023/10/10 09:30:58;;;;;;;62.13;32.17;;;;;;;18.09;83.75;100785.63;10271846;28;20050;-77
2023/10/10 09:36:09;;;;;;;61.55;33.10;;;;;;;18.22;84.07;100768.88;10267980;28;20745;-78
2023/10/10 09:41:27;;;;;;;58.05;30.40;;;;;;;18.35;80.94;100769.25;10265781;28;20054;-78
2023/10/10 09:46:58;;;;;;;61.88;33.00;;;;;;;18.41;81.73;100767.72;10273290;28;20047;-78
2023/10/10 09:57:40;;;;;;;62.40;31.65;;;;;;;18.58;79.65;100755.00;10199549;28;20125;-78
2023/10/10 10:02:48;;;;;;;57.95;31.15;;;;;;;18.59;79.58;100767.56;10281636;28;20042;-77
2023/10/10 10:08:05;;;;;;;61.08;34.40;;;;;;;18.42;79.78;100772.13;10268580;28;20051;-77
2023/10/10 10:13:26;;;;;;;56.80;32.22;;;;;;;19.30;76.26;100770.69;10265363;28;20480;-77
2023/10/10 10:18:44;;;;;;;57.60;32.38;;;;;;;20.46;71.50;100762.84;10270048;28;20051;-77
2023/10/10 10:23:57;;;;;;;49.20;27.88;;;;;;;21.14;67.38;100754.81;10283110;28;20046;-77
2023/10/10 10:29:15;;;;;;;52.85;29.33;;;;;;;20.76;69.46;100757.47;10275519;28;20050;-76
2023/10/10 10:34:31;;;;;;;52.97;29.33;;;;;;;20.21;70.74;100756.63;10259498;28;20054;-77
2023/10/10 10:39:36;;;;;;;46.28;27.92;;;;;;;19.98;72.23;100753.84;10270583;28;20046;-77
2023/10/10 10:44:47;;;;;;;47.47;25.95;;;;;;;20.04;71.96;100744.94;10267238;28;20055;-77
2023/10/10 10:49:54;;;;;;;44.85;26.80;;;;;;;19.84;71.90;100744.53;10262376;28;20065;-77
2023/10/10 10:55:18;;;;;;;44.53;25.40;;;;;;;20.35;71.44;100727.78;10256748;28;20047;-77
2023/10/10 11:00:56;;;;;;;41.28;25.05;;;;;;;20.55;69.98;100723.53;10259907;28;20046;-76
2023/10/10 11:05:57;;;;;;;46.50;26.27;;;;;;;20.15;70.39;100694.59;10269627;28;20148;-77
2023/10/10 11:11:22;;;;;;;47.38;24.67;;;;;;;20.18;71.55;100688.78;10271700;28;20061;-77
2023/10/10 11:16:36;;;;;;;40.33;23.73;;;;;;;20.49;72.11;100682.50;10268685;28;20686;-77
2023/10/10 11:21:47;;;;;;;36.72;22.15;;;;;;;21.26;70.04;100678.75;10270794;28;20058;-77
2023/10/10 11:27:02;;;;;;;37.72;20.05;;;;;;;20.71;68.33;100692.53;10266818;28;20506;-77
2023/10/10 11:32:08;;;;;;;34.05;21.08;;;;;;;20.52;69.50;100688.44;10267875;28;20505;-77
2023/10/10 11:37:17;;;;;;;36.28;20.52;;;;;;;19.77;67.78;100680.00;10269857;28;20421;-77
2023/10/10 11:42:29;;;;;;;38.28;21.10;;;;;;;20.44;68.22;100665.81;10261351;28;20058;-77
2023/10/10 11:47:42;;;;;;;34.05;19.40;;;;;;;21.00;67.27;100672.63;10266100;28;20051;-77
2023/10/10 11:52:53;;;;;;;34.92;17.27;;;;;;;21.26;64.53;100663.19;10265167;28;20473;-77
2023/10/10 11:57:58;;;;;;;28.88;16.70;;;;;;;20.29;67.87;100668.44;10268995;28;20066;-76
2023/10/10 12:03:05;;;;;;;30.65;17.45;;;;;;;21.42;66.02;100662.16;10263810;28;20615;-77
2023/10/10 12:08:08;;;;;;;29.83;16.27;;;;;;;22.22;60.85;100655.81;10258326;28;20050;-77
2023/10/10 12:13:19;;;;;;;27.25;15.98;;;;;;;22.83;59.41;100658.06;10259305;28;20047;-77
2023/10/10 12:18:26;;;;;;;30.65;15.63;;;;;;;22.19;58.62;100647.13;10262503;28;20046;-77
2023/10/10 12:23:30;;;;;;;32.92;17.35;;;;;;;21.60;61.57;100637.16;10277368;28;20105;-77
2023/10/10 12:28:33;;;;;;;27.25;15.50;;;;;;;22.18;58.45;100635.34;10273829;28;20828;-77
2023/10/10 12:33:37;;;;;;;25.00;15.50;;;;;;;23.43;56.20;100618.22;10269355;28;20138;-77
2023/10/10 12:38:40;;;;;;;25.33;15.45;;;;;;;23.95;55.08;100610.44;10262420;28;20081;-77
2023/10/10 12:43:43;;;;;;;27.40;15.23;;;;;;;26.32;48.21;100613.16;10256396;28;20050;-77
2023/10/10 12:48:51;;;;;;;26.58;15.75;;;;;;;25.36;48.86;100614.88;10271545;28;20054;-77
2023/10/10 12:54:00;;;;;;;23.98;15.00;;;;;;;23.25;56.36;100611.59;10289038;28;20133;-77
2023/10/10 12:59:04;;;;;;;23.92;15.27;;;;;;;23.04;57.50;100605.13;10273999;28;20054;-77
2023/10/10 13:04:31;;;;;;;24.90;14.82;;;;;;;22.55;57.98;100601.41;10260335;28;20588;-77
2023/10/10 13:09:42;;;;;;;20.35;12.25;;;;;;;23.41;55.08;100595.66;10276851;28;20057;-77
2023/10/10 13:14:50;;;;;;;17.63;11.52;;;;;;;23.51;53.56;100588.97;10276987;28;20061;-77
2023/10/10 13:19:58;;;;;;;17.45;9.65;;;;;;;23.02;54.72;100584.47;10267099;28;20108;-77
2023/10/10 13:25:08;;;;;;;16.00;8.13;;;;;;;22.88;53.75;100576.16;10268687;28;20049;-77
2023/10/10 13:30:12;;;;;;;12.35;8.00;;;;;;;22.86;52.01;100572.78;10274163;28;21161;-77
2023/10/10 13:35:19;;;;;;;14.18;8.13;;;;;;;22.30;53.19;100578.22;10262573;28;20655;-77
2023/10/10 13:40:23;;;;;;;13.43;7.28;;;;;;;22.46;53.30;100564.28;10281952;28;20046;-77
2023/10/10 13:45:28;;;;;;;12.45;7.72;;;;;;;21.97;54.52;100556.88;10270527;28;20050;-77
2023/10/10 13:50:42;;;;;;;10.75;6.90;;;;;;;22.90;51.73;100559.50;10271923;28;20050;-77
2023/10/10 13:55:46;;;;;;;14.05;7.15;;;;;;;22.32;54.37;100546.88;10276189;28;20129;-77
2023/10/10 14:00:55;;;;;;;11.90;6.82;;;;;;;22.46;53.27;100541.53;10272633;28;20560;-77
2023/10/10 14:06:03;;;;;;;13.43;7.50;;;;;;;24.06;50.62;100533.00;10252913;28;20131;-77
2023/10/10 14:11:07;;;;;;;10.02;6.53;;;;;;;23.16;52.56;100543.25;10272322;28;20061;-77
2023/10/10 14:16:10;;;;;;;16.33;7.80;;;;;;;23.13;54.08;100548.31;10267136;28;20062;-77
2023/10/10 14:21:16;;;;;;;15.60;8.00;;;;;;;24.37;51.02;100534.28;10272510;28;20073;-77
2023/10/10 14:26:27;;;;;;;17.67;7.50;;;;;;;26.29;45.76;100526.34;10268501;28;20046;-77
2023/10/10 14:31:31;;;;;;;9.60;5.85;;;;;;;25.89;45.79;100523.00;10273152;28;20233;-77
2023/10/10 14:36:39;;;;;;;8.05;5.20;;;;;;;25.68;45.51;100525.06;10273261;28;20049;-77
2023/10/10 14:41:43;;;;;;;7.93;5.47;;;;;;;24.96;46.26;100516.88;10266316;28;20053;-77
2023/10/10 14:46:46;;;;;;;8.75;5.15;;;;;;;23.78;49.60;100518.59;10280427;28;20398;-77
2023/10/10 14:51:52;;;;;;;10.15;5.03;;;;;;;21.81;53.01;100521.59;10289966;28;20062;-77
2023/10/10 14:56:55;;;;;;;12.93;5.95;;;;;;;21.33;53.83;100523.94;10281731;28;21220;-77
2023/10/10 15:02:00;;;;;;;10.45;5.95;;;;;;;21.08;52.53;100521.53;10280305;28;20046;-77
2023/10/10 15:07:04;;;;;;;7.95;4.82;;;;;;;21.00;52.77;100519.72;10277391;28;20046;-77
2023/10/10 15:12:08;;;;;;;11.93;4.82;;;;;;;21.34;51.90;100521.03;10277233;28;20058;-77
2023/10/10 15:17:12;;;;;;;7.80;5.05;;;;;;;21.12;53.81;100513.84;10276373;28;20050;-77
2023/10/10 15:22:17;;;;;;;13.57;5.50;;;;;;;21.12;53.16;100520.13;10260604;28;20066;-77
2023/10/10 15:27:20;;;;;;;12.00;4.82;;;;;;;21.04;54.08;100513.94;10258551;28;20043;-76
2023/10/10 15:32:23;;;;;;;8.82;5.90;;;;;;;20.87;54.70;100518.69;10262982;28;20047;-77
2023/10/10 15:37:30;;;;;;;10.48;5.53;;;;;;;20.79;55.36;100514.19;10270164;28;20421;-77
2023/10/10 15:42:33;;;;;;;13.95;6.47;;;;;;;20.72;56.52;100505.91;10275224;28;20058;-77
2023/10/10 15:47:36;;;;;;;9.40;5.53;;;;;;;20.61;56.03;100495.44;10273019;28;20051;-77
2023/10/10 15:52:41;;;;;;;16.80;4.70;;;;;;;20.28;56.33;100497.66;10284157;28;20038;-77
2023/10/10 15:57:44;;;;;;;8.63;5.20;;;;;;;20.23;57.44;100497.34;10296646;28;20038;-77
2023/10/10 16:02:52;;;;;;;15.40;6.43;;;;;;;20.18;57.74;100495.16;10272258;28;20042;-77
2023/10/10 16:07:58;;;;;;;12.27;5.45;;;;;;;20.22;57.67;100493.78;10275290;28;20047;-77
2023/10/10 16:13:10;;;;;;;12.80;5.38;;;;;;;20.18;58.35;100494.31;10270771;28;20051;-77
2023/10/10 16:18:15;;;;;;;14.07;6.28;;;;;;;20.09;59.55;100480.75;10273900;28;20051;-79
2023/10/10 16:28:56;;;;;;;19.00;11.45;;;;;;;19.85;61.25;100483.69;10277454;28;20047;-79
2023/10/10 16:34:02;;;;;;;18.30;6.63;;;;;;;19.63;62.10;100488.13;10282906;28;20051;-79
2023/10/10 16:39:06;;;;;;;13.63;6.50;;;;;;;19.60;62.26;100488.50;10269234;28;20043;-78
2023/10/10 16:44:13;;;;;;;13.88;5.97;;;;;;;19.52;62.01;100489.34;10271625;28;20047;-79
2023/10/10 16:49:19;;;;;;;8.60;5.28;;;;;;;19.42;62.20;100480.59;10275250;28;20545;-78
2023/10/10 16:54:22;;;;;;;9.43;4.93;;;;;;;19.36;62.55;100486.72;10290506;28;20039;-78
2023/10/10 16:59:26;;;;;;;11.77;5.50;;;;;;;19.31;62.22;100480.97;10299143;28;20064;-79
2023/10/10 17:04:29;;;;;;;14.05;5.78;;;;;;;19.24;62.71;100489.88;10295121;28;20046;-79
2023/10/10 17:09:35;;;;;;;11.60;5.35;;;;;;;19.14;62.50;100500.16;10273997;28;20126;-78
2023/10/10 17:14:39;;;;;;;10.40;4.75;;;;;;;19.13;62.53;100497.59;10293290;28;20049;-80
2023/10/10 17:19:42;;;;;;;9.23;5.50;;;;;;;19.08;63.45;100489.09;10284954;28;20563;-79
2023/10/10 17:24:47;;;;;;;13.18;5.88;;;;;;;18.91;64.30;100491.91;10298575;28;20051;-79
2023/10/10 17:29:51;;;;;;;18.08;5.88;;;;;;;18.86;64.34;100477.13;10295868;28;20039;-80
2023/10/10 17:34:54;;;;;;;11.35;5.82;;;;;;;18.82;64.45;100478.53;10292486;28;20093;-80
2023/10/10 17:39:57;;;;;;;10.77;6.22;;;;;;;18.77;64.10;100482.56;10309464;28;20063;-80
2023/10/10 17:45:03;;;;;;;11.88;5.30;;;;;;;18.75;63.39;100472.88;10276672;28;20069;-80
2023/10/10 17:50:07;;;;;;;10.07;5.35;;;;;;;18.70;62.86;100487.00;10303331;28;20498;-79
2023/10/10 17:55:13;;;;;;;12.25;4.95;;;;;;;18.60;62.67;100482.81;10296707;28;20051;-80
2023/10/10 18:00:20;;;;;;;13.23;5.50;;;;;;;18.63;61.34;100482.47;10279219;28;20510;-79
2023/10/10 18:05:24;;;;;;;14.77;5.32;;;;;;;18.85;59.95;100478.16;10283776;28;20062;-78
2023/10/10 18:10:27;;;;;;;11.40;6.03;;;;;;;18.95;59.29;100473.34;10281515;28;20070;-81
2023/10/10 18:15:31;;;;;;;11.73;5.88;;;;;;;18.85;60.11;100470.00;10268264;28;20054;-77
2023/10/10 18:20:39;;;;;;;13.93;6.15;;;;;;;18.70;60.39;100458.94;10278814;28;20039;-78
2023/10/10 18:25:43;;;;;;;12.93;5.80;;;;;;;18.66;60.45;100455.75;10277957;28;20054;-79
2023/10/10 18:30:47;;;;;;;11.48;5.40;;;;;;;18.53;61.24;100455.44;10280440;28;20069;-79
2023/10/10 18:35:50;;;;;;;11.85;5.78;;;;;;;18.48;61.46;100452.41;10291493;28;20118;-78
2023/10/10 18:40:54;;;;;;;13.13;5.47;;;;;;;18.43;61.71;100450.22;10293335;28;20123;-79
2023/10/10 18:45:59;;;;;;;20.52;5.97;;;;;;;18.38;62.18;100439.00;10289571;28;20045;-79
2023/10/10 18:51:03;;;;;;;7.47;4.75;;;;;;;18.32;62.38;100443.28;10288989;28;20047;-79
2023/10/10 18:56:07;;;;;;;10.13;5.38;;;;;;;18.41;62.10;100435.09;10287080;28;20047;-79
2023/10/10 19:01:12;;;;;;;13.02;5.60;;;;;;;18.39;62.20;100437.13;10290961;28;20050;-78
2023/10/10 19:06:17;;;;;;;13.55;5.90;;;;;;;18.41;62.13;100422.34;10291484;28;20065;-78
2023/10/10 19:11:23;;;;;;;14.73;5.85;;;;;;;18.55;61.41;100427.03;10289163;28;20039;-78
2023/10/10 19:16:27;;;;;;;12.63;4.93;;;;;;;18.53;60.91;100433.69;10305789;28;20047;-79
2023/10/10 19:21:30;;;;;;;10.73;4.85;;;;;;;18.65;60.32;100413.25;10304883;28;20506;-79
2023/10/10 19:26:35;;;;;;;13.85;4.85;;;;;;;18.68;60.70;100407.44;10301431;28;20039;-78
2023/10/10 19:31:39;;;;;;;11.27;4.88;;;;;;;18.57;60.99;100405.13;10304779;28;20047;-80
2023/10/10 19:36:44;;;;;;;16.50;5.40;;;;;;;18.46;61.56;100398.19;10307326;28;20043;-79
2023/10/10 19:41:47;;;;;;;10.30;4.75;;;;;;;18.33;61.70;100397.91;10300688;28;20086;-79
2023/10/10 19:46:53;;;;;;;14.20;5.57;;;;;;;18.34;61.85;100381.38;10303952;28;20101;-79
2023/10/10 19:51:56;;;;;;;10.60;5.90;;;;;;;18.35;62.01;100382.25;10300343;28;20054;-79
2023/10/10 19:56:59;;;;;;;8.82;4.90;;;;;;;18.24;62.40;100386.19;10291930;28;20042;-79
2023/10/10 20:02:06;;;;;;;10.55;5.55;;;;;;;18.18;62.89;100375.16;10270084;28;20059;-77
2023/10/10 20:07:09;;;;;;;13.13;5.38;;;;;;;18.01;63.57;100372.47;10280365;28;20066;-79
2023/10/10 20:12:14;;;;;;;17.05;5.03;;;;;;;17.93;63.82;100361.59;10304073;28;20071;-78
2023/10/10 20:17:18;;;;;;;11.23;5.13;;;;;;;17.96;63.67;100366.69;10288648;28;20078;-78
2023/10/10 20:22:21;;;;;;;10.05;4.85;;;;;;;18.02;63.64;100359.72;10277290;28;20053;-79
2023/10/10 20:27:30;;;;;;;10.93;4.97;;;;;;;17.89;63.96;100355.66;10273601;28;20062;-79
2023/10/10 20:32:34;;;;;;;14.48;4.65;;;;;;;17.86;64.02;100356.00;10269745;28;20051;-79
2023/10/10 20:37:38;;;;;;;13.63;4.97;;;;;;;18.06;63.34;100348.34;10268575;28;20043;-77
2023/10/10 20:42:42;;;;;;;9.70;4.85;;;;;;;18.05;63.19;100346.66;10284904;28;20414;-78
2023/10/10 20:47:47;;;;;;;11.57;4.78;;;;;;;17.95;63.09;100339.69;10286421;28;20051;-79
2023/10/10 20:52:51;;;;;;;8.20;4.28;;;;;;;18.03;62.98;100345.13;10287246;28;20070;-78
2023/10/10 20:57:55;;;;;;;11.27;4.68;;;;;;;18.08;63.07;100353.63;10298560;28;20081;-78
2023/10/10 21:03:05;;;;;;;12.57;4.85;;;;;;;17.91;63.37;100344.63;10284446;28;20047;-79
2023/10/10 21:08:09;;;;;;;9.15;5.03;;;;;;;17.90;63.41;100343.75;10276229;28;20081;-79
2023/10/10 21:13:12;;;;;;;13.07;5.13;;;;;;;17.84;63.64;100340.91;10279292;28;20047;-79
2023/10/10 21:18:18;;;;;;;10.82;4.43;;;;;;;17.98;62.77;100333.94;10285734;28;20070;-78
2023/10/10 21:23:21;;;;;;;17.60;5.18;;;;;;;18.01;62.62;100336.31;10286527;28;20043;-78
2023/10/10 21:28:24;;;;;;;10.95;4.68;;;;;;;17.98;63.03;100332.06;10281548;28;20055;-78
2023/10/10 21:33:29;;;;;;;7.32;4.50;;;;;;;17.78;63.63;100339.72;10282830;28;20422;-79
2023/10/10 21:38:34;;;;;;;8.88;4.68;;;;;;;17.68;64.01;100333.63;10275896;28;20070;-78
2023/10/10 21:43:37;;;;;;;6.90;4.20;;;;;;;17.74;63.99;100329.38;10277269;28;20047;-79
2023/10/10 21:48:41;;;;;;;10.77;4.85;;;;;;;17.79;64.13;100337.84;10272267;28;20051;-79
2023/10/10 21:53:44;;;;;;;11.18;4.57;;;;;;;17.66;64.34;100336.53;10277479;28;20050;-78
2023/10/10 21:58:47;;;;;;;8.15;4.28;;;;;;;17.54;65.17;100326.19;10283992;28;20062;-79
2023/10/10 22:03:51;;;;;;;13.30;4.80;;;;;;;17.55;65.46;100314.28;10297136;28;20055;-79
2023/10/10 22:08:54;;;;;;;9.63;4.88;;;;;;;17.55;66.04;100314.28;10276492;28;20037;-79
2023/10/10 22:13:58;;;;;;;7.57;4.45;;;;;;;17.37;66.46;100318.03;10266210;28;20086;-79
2023/10/10 22:19:02;;;;;;;13.23;5.05;;;;;;;17.51;66.02;100304.81;10271797;28;20524;-78
2023/10/10 22:24:05;;;;;;;14.07;5.28;;;;;;;17.62;65.75;100304.44;10279651;28;20524;-78
2023/10/10 22:29:11;;;;;;;12.93;5.45;;;;;;;17.56;65.65;100291.56;10281371;28;20047;-79
2023/10/10 22:34:15;;;;;;;11.85;4.53;;;;;;;17.35;65.96;100297.50;10281187;28;20042;-77
2023/10/10 22:39:18;;;;;;;9.05;4.65;;;;;;;17.70;64.77;100290.84;10281664;28;20043;-78
2023/10/10 22:44:21;;;;;;;10.43;5.57;;;;;;;17.56;64.85;100283.41;10276554;28;20047;-78
2023/10/10 22:49:25;;;;;;;11.20;5.38;;;;;;;17.52;65.28;100292.91;10269713;28;20051;-79
2023/10/10 22:54:28;;;;;;;11.38;5.43;;;;;;;17.51;64.71;100274.94;10272833;28;20055;-78
2023/10/10 22:59:34;;;;;;;9.07;4.30;;;;;;;17.47;64.66;100278.00;10278503;28;20036;-79
2023/10/10 23:04:39;;;;;;;9.70;4.80;;;;;;;17.56;64.54;100264.41;10279802;28;20051;-78
2023/10/10 23:09:43;;;;;;;10.13;4.80;;;;;;;17.53;64.33;100271.03;10277985;28;20047;-78
2023/10/10 23:14:46;;;;;;;12.27;6.07;;;;;;;17.44;64.58;100267.47;10279455;28;20755;-78
2023/10/10 23:19:50;;;;;;;8.95;4.78;;;;;;;17.36;64.71;100264.78;10265818;28;20060;-78
2023/10/10 23:24:53;;;;;;;13.35;5.30;;;;;;;17.34;64.58;100255.94;10265532;28;20051;-79
2023/10/10 23:29:56;;;;;;;12.00;5.03;;;;;;;17.41;64.24;100250.66;10270435;28;20043;-78
2023/10/10 23:35:02;;;;;;;12.05;4.97;;;;;;;17.28;64.21;100251.22;10276723;28;20053;-78
2023/10/10 23:40:14;;;;;;;9.88;5.07;;;;;;;17.17;64.27;100254.28;10278971;28;20502;-78
2023/10/10 23:45:22;;;;;;;7.90;4.88;;;;;;;17.51;62.97;100242.34;10271847;28;20035;-79
2023/10/10 23:50:27;;;;;;;7.68;4.57;;;;;;;17.23;63.31;100226.44;10278797;28;20039;-77
2023/10/10 23:55:30;;;;;;;10.43;5.03;;;;;;;17.39;63.06;100236.44;10271164;28;20100;-79
